createdAt,value
2019-02-17T00:02:00.753Z,7.00
2019-02-17T00:04:27.329Z,10.32
2019-02-17T00:06:53.910Z,7.78
2019-02-17T00:09:20.535Z,6.83
2019-02-17T00:11:47.112Z,6.80
2019-02-17T00:14:13.738Z,6.08
2019-02-17T00:16:40.359Z,7.47
2019-02-17T00:19:06.995Z,6.62
2019-02-17T00:21:33.570Z,7.78
2019-02-17T00:24:00.194Z,8.08
2019-02-17T00:26:26.823Z,7.05
2019-02-17T00:28:59.557Z,6.90
2019-02-17T00:31:21.802Z,7.08
2019-02-17T00:33:48.383Z,7.05
2019-02-17T00:36:15.013Z,7.45
2019-02-17T00:38:41.643Z,6.53
2019-02-17T00:41:08.227Z,7.78
2019-02-17T00:43:34.847Z,7.35
2019-02-17T00:46:01.420Z,6.22
2019-02-17T00:48:28.049Z,8.68
2019-02-17T00:50:54.682Z,6.17
2019-02-17T00:53:21.301Z,7.03
2019-02-17T00:55:47.883Z,5.78
2019-02-17T00:58:14.508Z,5.30
2019-02-17T01:00:41.134Z,5.30
2019-02-17T01:03:07.777Z,4.67
2019-02-17T01:05:34.422Z,6.30
2019-02-17T01:08:01.854Z,6.55
2019-02-17T01:10:28.431Z,6.15
2019-02-17T01:12:55.063Z,5.42
2019-02-17T01:15:21.637Z,5.62
2019-02-17T01:17:48.270Z,5.78
2019-02-17T01:20:14.848Z,6.53
2019-02-17T01:22:41.433Z,5.62
2019-02-17T01:25:08.054Z,6.42
2019-02-17T01:27:34.631Z,6.85
2019-02-17T01:30:01.260Z,5.67
2019-02-17T01:32:27.837Z,6.03
2019-02-17T01:34:54.418Z,5.70
2019-02-17T01:37:21.040Z,6.62
2019-02-17T01:39:47.617Z,5.45
2019-02-17T01:42:14.242Z,6.85
2019-02-17T01:44:40.868Z,5.87
2019-02-17T01:47:07.498Z,5.75
2019-02-17T01:49:34.188Z,6.17
2019-02-17T01:52:00.772Z,5.42
2019-02-17T01:54:27.405Z,5.53
2019-02-17T01:56:53.987Z,4.85
2019-02-17T01:59:30.208Z,4.80
2019-02-17T02:01:48.918Z,4.65
2019-02-17T02:04:15.553Z,5.30
2019-02-17T02:06:42.182Z,4.60
2019-02-17T02:09:08.769Z,4.83
2019-02-17T02:11:35.397Z,5.10
2019-02-17T02:14:01.973Z,5.62
2019-02-17T02:16:28.597Z,5.15
2019-02-17T02:18:55.176Z,4.67
2019-02-17T02:21:21.801Z,5.37
2019-02-17T02:23:48.379Z,4.30
2019-02-17T02:26:15.003Z,4.10
2019-02-17T02:28:41.580Z,5.45
2019-02-17T02:31:08.207Z,4.53
2019-02-17T02:33:34.801Z,5.53
2019-02-17T02:36:01.503Z,4.62
2019-02-17T02:38:28.081Z,5.08
2019-02-17T02:40:54.717Z,4.10
2019-02-17T02:43:21.292Z,4.35
2019-02-17T02:45:47.940Z,3.70
2019-02-17T02:48:14.525Z,4.60
2019-02-17T02:50:41.104Z,5.45
2019-02-17T02:53:07.740Z,4.67
2019-02-17T02:55:34.366Z,5.03
2019-02-17T02:58:00.948Z,4.42
2019-02-17T03:00:27.585Z,4.08
2019-02-17T03:02:54.205Z,4.72
2019-02-17T03:05:20.792Z,5.03
2019-02-17T03:07:47.424Z,5.15
2019-02-17T03:10:14.011Z,4.17
2019-02-17T03:12:40.635Z,5.25
2019-02-17T03:15:07.219Z,4.62
2019-02-17T03:17:33.850Z,5.28
2019-02-17T03:20:00.444Z,4.50
2019-02-17T03:22:27.153Z,5.40
2019-02-17T03:24:53.778Z,4.95
2019-02-17T03:27:20.405Z,5.12
2019-02-17T03:29:46.984Z,4.92
2019-02-17T03:32:13.706Z,4.10
2019-02-17T03:34:40.291Z,4.70
2019-02-17T03:37:06.917Z,4.42
2019-02-17T03:39:33.547Z,5.87
2019-02-17T03:42:00.136Z,5.70
2019-02-17T03:44:26.760Z,5.05
2019-02-17T03:46:53.407Z,5.42
2019-02-17T03:49:20.159Z,4.60
2019-02-17T03:51:46.746Z,5.95
2019-02-17T03:54:13.456Z,6.20
2019-02-17T03:56:40.140Z,5.45
2019-02-17T03:59:06.798Z,5.10
2019-02-17T04:01:33.388Z,5.30
2019-02-17T04:03:59.976Z,4.62
2019-02-17T04:06:26.596Z,5.58
2019-02-17T04:08:53.178Z,4.85
2019-02-17T04:11:19.809Z,5.35
2019-02-17T04:13:46.398Z,5.62
2019-02-17T04:16:13.039Z,5.08
2019-02-17T04:18:39.745Z,5.17
2019-02-17T04:21:06.323Z,5.40
2019-02-17T04:23:32.962Z,5.33
2019-02-17T04:25:59.545Z,4.33
2019-02-17T04:28:26.186Z,4.95
2019-02-17T04:30:52.838Z,5.25
2019-02-17T04:33:19.470Z,4.85
2019-02-17T04:35:46.094Z,5.33
2019-02-17T04:38:12.682Z,5.42
2019-02-17T04:40:39.306Z,6.62
2019-02-17T04:43:05.903Z,6.33
2019-02-17T04:45:32.534Z,4.58
2019-02-17T04:47:59.120Z,6.72
2019-02-17T04:50:25.746Z,6.08
2019-02-17T04:52:52.333Z,6.45
2019-02-17T04:55:18.973Z,6.55
2019-02-17T04:57:45.555Z,4.65
2019-02-17T05:00:12.270Z,6.28
2019-02-17T05:02:38.850Z,4.83
2019-02-17T05:05:05.477Z,5.78
2019-02-17T05:07:32.058Z,4.33
2019-02-17T05:09:58.690Z,4.97
2019-02-17T05:12:25.327Z,6.10
2019-02-17T05:14:51.912Z,5.45
2019-02-17T05:17:18.541Z,5.08
2019-02-17T05:19:45.176Z,5.05
2019-02-17T05:22:11.804Z,4.65
2019-02-17T05:24:38.436Z,6.60
2019-02-17T05:27:05.019Z,4.72
2019-02-17T05:29:31.652Z,5.70
2019-02-17T05:31:58.230Z,5.37
2019-02-17T05:34:24.897Z,5.90
2019-02-17T05:36:51.478Z,6.47
2019-02-17T05:39:18.106Z,5.78
2019-02-17T05:41:44.683Z,5.72
2019-02-17T05:44:11.317Z,5.60
2019-02-17T05:46:37.896Z,5.47
2019-02-17T05:49:04.528Z,5.10
2019-02-17T05:51:31.161Z,5.22
2019-02-17T05:53:57.793Z,5.33
2019-02-17T05:56:24.430Z,5.37
2019-02-17T05:58:51.019Z,5.28
2019-02-17T06:01:17.727Z,5.10
2019-02-17T06:03:44.354Z,5.03
2019-02-17T06:06:11.002Z,5.03
2019-02-17T06:08:37.589Z,6.53
2019-02-17T06:11:04.182Z,4.80
2019-02-17T06:13:30.876Z,6.00
2019-02-17T06:15:57.457Z,5.15
2019-02-17T06:18:24.176Z,5.03
2019-02-17T06:20:50.760Z,4.80
2019-02-17T06:23:17.393Z,5.67
2019-02-17T06:25:43.976Z,5.53
2019-02-17T06:28:10.607Z,4.80
2019-02-17T06:30:37.193Z,5.10
2019-02-17T06:33:03.830Z,6.30
2019-02-17T06:35:30.456Z,6.50
2019-02-17T06:37:57.125Z,5.12
2019-02-17T06:40:23.758Z,6.28
2019-02-17T06:42:50.466Z,5.45
2019-02-17T06:45:19.659Z,5.15
2019-02-17T06:47:45.679Z,5.87
2019-02-17T06:50:12.259Z,5.90
2019-02-17T06:52:38.843Z,5.67
2019-02-17T06:55:05.481Z,6.87
2019-02-17T06:57:32.069Z,5.05
2019-02-17T06:59:58.651Z,5.40
2019-02-17T07:02:25.305Z,5.40
2019-02-17T07:04:51.893Z,5.17
2019-02-17T07:07:18.604Z,6.08
2019-02-17T07:09:45.190Z,5.90
2019-02-17T07:12:11.837Z,5.17
2019-02-17T07:14:38.528Z,6.17
2019-02-17T07:17:05.173Z,6.12
2019-02-17T07:19:31.843Z,6.35
2019-02-17T07:21:58.474Z,7.22
2019-02-17T07:24:25.102Z,7.47
2019-02-17T07:26:51.689Z,6.75
2019-02-17T07:29:18.321Z,6.72
2019-02-17T07:31:44.903Z,6.20
2019-02-17T07:34:11.597Z,5.70
2019-02-17T07:36:38.238Z,5.92
2019-02-17T07:39:04.825Z,6.00
2019-02-17T07:41:31.402Z,8.28
2019-02-17T07:43:58.035Z,6.95
2019-02-17T07:46:24.609Z,8.63
2019-02-17T07:48:51.322Z,6.22
2019-02-17T07:51:17.981Z,7.08
2019-02-17T07:53:44.610Z,8.68
2019-02-17T07:56:11.241Z,7.00
2019-02-17T07:58:37.822Z,7.30
2019-02-17T08:01:04.447Z,7.03
2019-02-17T08:03:31.030Z,8.48
2019-02-17T08:05:57.662Z,8.20
2019-02-17T08:08:24.291Z,8.30
2019-02-17T08:10:50.920Z,7.33
2019-02-17T08:13:17.546Z,9.10
2019-02-17T08:15:44.183Z,8.13
2019-02-17T08:18:10.762Z,8.55
2019-02-17T08:20:37.345Z,6.30
2019-02-17T08:23:03.966Z,7.97
2019-02-17T08:25:30.545Z,8.25
2019-02-17T08:27:57.185Z,9.70
2019-02-17T08:30:23.768Z,7.65
2019-02-17T08:32:50.346Z,7.67
2019-02-17T08:35:16.966Z,7.37
2019-02-17T08:37:43.598Z,10.23
2019-02-17T08:40:10.313Z,7.80
2019-02-17T08:42:36.952Z,9.83
2019-02-17T08:45:03.594Z,7.47
2019-02-17T08:47:30.176Z,7.75
2019-02-17T08:49:56.755Z,10.13
2019-02-17T08:52:23.380Z,9.88
2019-02-17T08:54:50.006Z,8.13
2019-02-17T08:57:16.633Z,8.13
2019-02-17T08:59:43.217Z,10.03
2019-02-17T09:02:09.850Z,11.65
2019-02-17T09:04:36.424Z,8.18
2019-02-17T09:07:03.057Z,8.65
2019-02-17T09:09:29.639Z,9.28
2019-02-17T09:11:56.301Z,8.73
2019-02-17T09:14:22.944Z,8.95
2019-02-17T09:16:49.521Z,8.20
2019-02-17T09:19:16.159Z,7.30
2019-02-17T09:21:42.746Z,7.50
2019-02-17T09:24:09.324Z,7.87
2019-02-17T09:26:35.957Z,9.43
2019-02-17T09:29:02.539Z,10.88
2019-02-17T09:31:29.174Z,12.37
2019-02-17T09:33:55.753Z,11.57
2019-02-17T09:36:22.376Z,9.65
2019-02-17T09:38:49.012Z,9.70
2019-02-17T09:41:15.653Z,12.03
2019-02-17T09:43:42.279Z,10.95
2019-02-17T09:46:08.907Z,11.70
2019-02-17T09:48:35.493Z,10.20
2019-02-17T09:51:02.205Z,10.65
2019-02-17T09:53:28.792Z,10.63
2019-02-17T09:55:55.397Z,10.60
2019-02-17T09:58:22.032Z,10.15
2019-02-17T10:00:48.610Z,10.55
2019-02-17T10:03:15.296Z,9.20
2019-02-17T10:05:41.876Z,9.78
2019-02-17T10:08:08.460Z,11.12
2019-02-17T10:10:35.091Z,10.10
2019-02-17T10:13:01.678Z,8.00
2019-02-17T10:15:28.255Z,9.85
2019-02-17T10:17:54.887Z,7.75
2019-02-17T10:20:21.470Z,10.10
2019-02-17T10:22:48.106Z,7.95
2019-02-17T10:25:14.684Z,12.47
2019-02-17T10:27:41.319Z,12.10
2019-02-17T10:30:07.902Z,10.70
2019-02-17T10:32:38.547Z,9.28
2019-02-17T10:35:02.925Z,11.15
2019-02-17T10:37:29.565Z,11.83
2019-02-17T10:39:56.201Z,11.93
2019-02-17T10:42:22.781Z,11.70
2019-02-17T10:44:49.408Z,11.68
2019-02-17T10:47:15.988Z,13.80
2019-02-17T10:49:42.614Z,14.45
2019-02-17T10:52:09.306Z,12.28
2019-02-17T10:54:35.912Z,13.28
2019-02-17T10:57:02.497Z,11.75
2019-02-17T10:59:29.127Z,12.30
2019-02-17T11:01:55.768Z,11.33
2019-02-17T11:04:22.402Z,12.98
2019-02-17T11:06:48.987Z,15.00
2019-02-17T11:09:15.569Z,12.60
2019-02-17T11:11:42.213Z,14.73
2019-02-17T11:14:08.799Z,14.05
2019-02-17T11:16:35.385Z,17.12
2019-02-17T11:19:02.027Z,15.65
2019-02-17T11:21:28.641Z,18.73
2019-02-17T11:23:55.281Z,18.30
2019-02-17T11:26:21.936Z,15.75
2019-02-17T11:28:48.656Z,16.50
2019-02-17T11:31:15.295Z,15.23
2019-02-17T11:33:41.936Z,15.78
2019-02-17T11:36:08.525Z,16.12
2019-02-17T11:38:35.158Z,15.70
2019-02-17T11:41:01.794Z,14.55
2019-02-17T11:43:28.384Z,13.50
2019-02-17T11:45:55.022Z,15.45
2019-02-17T11:48:21.611Z,16.05
2019-02-17T11:50:48.295Z,15.58
2019-02-17T11:53:14.885Z,13.15
2019-02-17T11:55:41.521Z,14.25
2019-02-17T11:58:08.110Z,14.63
2019-02-17T12:00:34.786Z,14.47
2019-02-17T12:03:07.987Z,14.58
2019-02-17T12:05:29.776Z,14.50
2019-02-17T12:07:56.412Z,14.38
2019-02-17T12:10:23.002Z,14.85
2019-02-17T12:12:49.680Z,14.20
2019-02-17T12:15:16.273Z,14.70
2019-02-17T12:17:42.955Z,15.65
2019-02-17T12:20:09.549Z,15.63
2019-02-17T12:22:36.183Z,16.20
2019-02-17T12:25:02.869Z,16.02
2019-02-17T12:27:29.512Z,14.78
2019-02-17T12:29:56.147Z,16.07
2019-02-17T12:32:22.735Z,15.28
2019-02-17T12:34:49.373Z,13.32
2019-02-17T12:37:15.972Z,15.53
2019-02-17T12:39:42.606Z,14.95
2019-02-17T12:42:09.196Z,15.78
2019-02-17T12:44:35.829Z,15.65
2019-02-17T12:47:02.415Z,14.93
2019-02-17T12:49:29.046Z,14.80
2019-02-17T12:51:55.689Z,14.13
2019-02-17T12:54:28.889Z,14.35
2019-02-17T12:56:50.677Z,17.10
2019-02-17T12:59:17.268Z,15.10
2019-02-17T13:01:45.362Z,13.38
2019-02-17T13:04:12.181Z,12.80
2019-02-17T13:06:38.770Z,13.32
2019-02-17T13:09:05.406Z,12.93
2019-02-17T13:11:32.044Z,13.08
2019-02-17T13:13:58.633Z,12.88
2019-02-17T13:16:25.267Z,11.75
2019-02-17T13:18:51.849Z,11.75
2019-02-17T13:21:18.480Z,12.43
2019-02-17T13:23:45.153Z,12.82
2019-02-17T13:26:11.791Z,12.95
2019-02-17T13:28:38.426Z,12.93
2019-02-17T13:31:05.013Z,12.10
2019-02-17T13:33:38.842Z,10.35
2019-02-17T13:35:59.958Z,14.83
2019-02-17T13:38:26.544Z,14.53
2019-02-17T13:40:53.176Z,13.15
2019-02-17T13:43:19.774Z,10.50
2019-02-17T13:45:46.488Z,10.98
2019-02-17T13:48:13.074Z,11.08
2019-02-17T13:50:39.662Z,11.22
2019-02-17T13:53:11.680Z,10.32
2019-02-17T13:55:34.613Z,10.13
2019-02-17T13:58:02.389Z,10.15
2019-02-17T14:00:28.981Z,11.85
2019-02-17T14:02:55.612Z,10.15
2019-02-17T14:05:22.199Z,10.98
2019-02-17T14:07:48.839Z,9.33
2019-02-17T14:10:15.425Z,9.95
2019-02-17T14:12:42.013Z,9.75
2019-02-17T14:15:08.656Z,10.78
2019-02-17T14:17:35.306Z,9.83
2019-02-17T14:20:01.889Z,10.70
2019-02-17T14:22:28.474Z,9.08
2019-02-17T14:24:55.108Z,10.72
2019-02-17T14:27:21.747Z,11.22
2019-02-17T14:29:48.376Z,9.00
2019-02-17T14:32:15.122Z,9.25
2019-02-17T14:34:41.707Z,10.13
2019-02-17T14:37:08.390Z,8.20
2019-02-17T14:39:35.025Z,9.38
2019-02-17T14:42:01.697Z,10.10
2019-02-17T14:44:28.325Z,9.50
2019-02-17T14:46:54.975Z,10.63
2019-02-17T14:49:21.563Z,12.50
2019-02-17T14:51:48.163Z,8.58
2019-02-17T14:54:14.786Z,9.63
2019-02-17T14:56:41.429Z,8.60
2019-02-17T14:59:08.064Z,9.65
2019-02-17T15:01:34.726Z,10.75
2019-02-17T15:04:08.404Z,10.18
2019-02-17T15:06:29.672Z,11.40
2019-02-17T15:08:56.309Z,9.48
2019-02-17T15:11:22.887Z,11.53
2019-02-17T15:13:49.525Z,9.20
2019-02-17T15:16:16.108Z,8.93
2019-02-17T15:18:42.694Z,9.83
2019-02-17T15:21:09.405Z,8.13
2019-02-17T15:23:35.994Z,9.33
2019-02-17T15:26:02.625Z,10.35
2019-02-17T15:28:29.227Z,9.98
2019-02-17T15:30:55.860Z,11.88
2019-02-17T15:33:22.445Z,14.30
2019-02-17T15:35:49.077Z,14.78
2019-02-17T15:38:15.669Z,17.90
2019-02-17T15:40:42.295Z,26.17
2019-02-17T15:43:08.887Z,33.75
2019-02-17T15:45:35.522Z,44.83
2019-02-17T15:48:02.112Z,47.00
2019-02-17T15:50:28.744Z,46.28
2019-02-17T15:52:55.329Z,40.55
2019-02-17T15:55:21.970Z,35.55
2019-02-17T15:57:49.517Z,37.60
2019-02-17T16:00:16.267Z,32.93
2019-02-17T16:02:42.855Z,31.97
2019-02-17T16:05:09.488Z,32.98
2019-02-17T16:07:36.123Z,36.60
2019-02-17T16:10:03.845Z,35.05
2019-02-17T16:12:30.600Z,35.50
2019-02-17T16:14:57.284Z,34.98
2019-02-17T16:17:23.935Z,35.90
2019-02-17T16:19:50.588Z,26.93
2019-02-17T16:22:17.188Z,23.07
2019-02-17T16:24:43.825Z,16.77
2019-02-17T16:27:10.453Z,16.67
2019-02-17T16:29:37.036Z,15.65
2019-02-17T16:32:03.676Z,17.67
2019-02-17T16:34:38.114Z,17.23
2019-02-17T16:36:58.619Z,15.25
2019-02-17T16:39:25.203Z,13.58
2019-02-17T16:41:51.837Z,11.78
2019-02-17T16:44:18.419Z,11.05
2019-02-17T16:46:45.132Z,13.43
2019-02-17T16:49:11.716Z,13.20
2019-02-17T16:51:38.296Z,10.85
2019-02-17T16:54:04.926Z,13.58
2019-02-17T16:56:31.509Z,13.90
2019-02-17T16:58:58.140Z,13.65
2019-02-17T17:01:24.731Z,11.97
2019-02-17T17:03:51.371Z,11.12
2019-02-17T17:06:17.956Z,10.50
2019-02-17T17:08:44.543Z,8.70
2019-02-17T17:11:11.176Z,10.55
2019-02-17T17:13:37.757Z,9.43
2019-02-17T17:16:04.391Z,13.80
2019-02-17T17:18:31.014Z,12.25
2019-02-17T17:20:57.648Z,10.72
2019-02-17T17:23:24.228Z,12.07
2019-02-17T17:25:50.866Z,14.25
2019-02-17T17:28:17.445Z,14.40
2019-02-17T17:30:44.084Z,16.32
2019-02-17T17:33:10.726Z,12.20
2019-02-17T17:35:37.373Z,9.85
2019-02-17T17:38:03.947Z,10.28
2019-02-17T17:40:30.530Z,8.15
2019-02-17T17:42:57.157Z,9.80
2019-02-17T17:45:23.740Z,9.63
2019-02-17T17:47:50.372Z,9.73
2019-02-17T17:50:17.004Z,10.15
2019-02-17T17:52:43.639Z,8.50
2019-02-17T17:55:10.218Z,10.20
2019-02-17T17:57:36.839Z,10.03
2019-02-17T18:00:03.419Z,10.28
2019-02-17T18:02:30.001Z,8.98
2019-02-17T18:04:56.675Z,9.08
2019-02-17T18:07:23.255Z,9.95
2019-02-17T18:09:49.835Z,9.48
2019-02-17T18:12:16.461Z,10.35
2019-02-17T18:14:43.104Z,10.15
2019-02-17T18:17:09.687Z,9.28
2019-02-17T18:19:36.266Z,11.35
2019-02-17T18:22:02.901Z,9.10
2019-02-17T18:24:29.485Z,10.18
2019-02-17T18:26:56.117Z,8.25
2019-02-17T18:29:22.801Z,10.88
2019-02-17T18:31:49.439Z,9.40
2019-02-17T18:34:16.073Z,9.83
2019-02-17T18:36:42.656Z,10.18
2019-02-17T18:39:09.290Z,8.95
2019-02-17T18:41:36.885Z,8.75
2019-02-17T18:44:03.470Z,10.30
2019-02-17T18:46:30.102Z,8.88
2019-02-17T18:48:56.684Z,9.45
2019-02-17T18:51:23.313Z,10.68
2019-02-17T18:53:49.896Z,10.20
2019-02-17T18:56:16.523Z,8.18
2019-02-17T18:58:43.111Z,10.40
2019-02-17T19:01:09.745Z,11.15
2019-02-17T19:03:36.327Z,11.83
2019-02-17T19:06:02.957Z,11.30
2019-02-17T19:08:29.541Z,8.95
2019-02-17T19:10:56.171Z,11.53
2019-02-17T19:13:22.751Z,11.22
2019-02-17T19:15:49.379Z,13.53
2019-02-17T19:18:16.007Z,13.38
2019-02-17T19:20:42.635Z,13.65
2019-02-17T19:23:09.269Z,12.98
2019-02-17T19:25:35.989Z,11.85
2019-02-17T19:28:03.795Z,13.30
2019-02-17T19:30:30.594Z,13.40
2019-02-17T19:32:57.183Z,15.90
2019-02-17T19:35:23.809Z,16.55
2019-02-17T19:37:50.394Z,16.45
2019-02-17T19:40:17.024Z,16.55
2019-02-17T19:42:43.650Z,15.40
2019-02-17T19:45:10.237Z,14.78
2019-02-17T19:47:36.875Z,15.45
2019-02-17T19:50:03.463Z,11.40
2019-02-17T19:52:30.044Z,13.43
2019-02-17T19:54:56.683Z,12.60
2019-02-17T19:57:23.267Z,12.37
2019-02-17T19:59:49.846Z,11.95
2019-02-17T20:02:16.480Z,10.25
2019-02-17T20:04:43.114Z,11.75
2019-02-17T20:07:09.748Z,11.88
2019-02-17T20:09:36.330Z,15.45
2019-02-17T20:12:02.914Z,14.38
2019-02-17T20:14:31.637Z,12.95
2019-02-17T20:16:57.857Z,11.28
2019-02-17T20:19:25.775Z,11.45
2019-02-17T20:21:52.449Z,11.28
2019-02-17T20:24:19.079Z,12.05
2019-02-17T20:26:45.661Z,11.05
2019-02-17T20:29:12.295Z,10.43
2019-02-17T20:31:38.881Z,11.12
2019-02-17T20:34:05.507Z,12.80
2019-02-17T20:36:32.086Z,12.78
2019-02-17T20:38:58.720Z,13.68
2019-02-17T20:41:25.359Z,12.78
2019-02-17T20:43:52.065Z,12.63
2019-02-17T20:46:18.643Z,13.43
2019-02-17T20:48:45.273Z,12.37
2019-02-17T20:51:11.905Z,14.05
2019-02-17T20:53:38.485Z,14.47
2019-02-17T20:56:05.116Z,14.28
2019-02-17T20:58:31.721Z,13.62
2019-02-17T21:00:58.361Z,16.52
2019-02-17T21:03:24.945Z,12.75
2019-02-17T21:05:51.538Z,12.75
2019-02-17T21:08:18.165Z,14.20
2019-02-17T21:10:44.799Z,14.85
2019-02-17T21:13:11.430Z,16.65
2019-02-17T21:15:38.020Z,16.17
2019-02-17T21:18:04.660Z,13.08
2019-02-17T21:20:31.245Z,12.73
2019-02-17T21:22:57.829Z,13.98
2019-02-17T21:25:24.456Z,13.78
2019-02-17T21:27:51.082Z,12.95
2019-02-17T21:30:17.668Z,13.58
2019-02-17T21:32:44.302Z,14.00
2019-02-17T21:35:10.883Z,13.90
2019-02-17T21:37:37.520Z,12.93
2019-02-17T21:40:04.101Z,15.48
2019-02-17T21:42:30.734Z,14.30
2019-02-17T21:44:57.368Z,14.50
2019-02-17T21:47:23.992Z,13.98
2019-02-17T21:49:50.629Z,14.75
2019-02-17T21:52:17.212Z,14.47
2019-02-17T21:54:43.798Z,16.30
2019-02-17T21:57:10.427Z,13.50
2019-02-17T21:59:37.014Z,13.38
2019-02-17T22:02:03.593Z,13.48
2019-02-17T22:04:30.224Z,13.45
2019-02-17T22:06:56.855Z,11.60
2019-02-17T22:09:23.439Z,13.72
2019-02-17T22:11:50.077Z,14.65
2019-02-17T22:14:16.650Z,13.35
2019-02-17T22:16:43.322Z,12.33
2019-02-17T22:19:09.904Z,13.38
2019-02-17T22:21:36.544Z,10.68
2019-02-17T22:24:03.119Z,13.40
2019-02-17T22:26:29.702Z,13.38
2019-02-17T22:28:56.324Z,13.80
2019-02-17T22:31:22.945Z,11.15
2019-02-17T22:33:49.588Z,13.48
2019-02-17T22:36:16.173Z,15.15
2019-02-17T22:38:42.758Z,14.25
2019-02-17T22:41:09.388Z,13.55
2019-02-17T22:43:36.019Z,13.75
2019-02-17T22:46:02.600Z,11.85
2019-02-17T22:48:29.236Z,11.60
2019-02-17T22:50:55.820Z,13.00
2019-02-17T22:53:22.485Z,11.48
2019-02-17T22:55:49.114Z,12.85
2019-02-17T22:58:15.699Z,12.98
2019-02-17T23:00:42.332Z,10.35
2019-02-17T23:03:08.967Z,11.53
2019-02-17T23:05:35.547Z,11.78
2019-02-17T23:08:02.176Z,12.65
2019-02-17T23:10:28.808Z,12.33
2019-02-17T23:12:55.384Z,11.28
2019-02-17T23:15:22.028Z,13.50
2019-02-17T23:17:48.616Z,11.75
2019-02-17T23:20:15.191Z,11.18
2019-02-17T23:22:41.823Z,12.90
2019-02-17T23:25:08.483Z,11.12
2019-02-17T23:27:35.118Z,13.83
2019-02-17T23:30:01.742Z,13.53
2019-02-17T23:32:28.386Z,12.80
2019-02-17T23:34:54.975Z,13.83
2019-02-17T23:37:21.550Z,14.78
2019-02-17T23:39:48.186Z,13.85
2019-02-17T23:42:14.763Z,14.63
2019-02-17T23:44:41.345Z,12.85
2019-02-17T23:47:07.977Z,15.63
2019-02-17T23:49:34.562Z,14.63
2019-02-17T23:52:01.395Z,11.38
2019-02-17T23:54:27.971Z,12.15
2019-02-17T23:56:54.599Z,14.15
2019-02-17T23:59:21.179Z,13.22
